sensor_id;sensor_type;location;lat;lon;timestamp;P1;durP1;ratioP1;P2;durP2;ratioP2
37657;SDS011;23500;53.268;8.308;2023-12-20T00:01:00;6.45;;;5.57;;
37657;SDS011;23500;53.268;8.308;2023-12-20T00:03:26;6.93;;;5.80;;
37657;SDS011;23500;53.268;8.308;2023-12-20T00:05:51;6.88;;;5.85;;
37657;SDS011;23500;53.268;8.308;2023-12-20T00:08:17;7.00;;;6.00;;
37657;SDS011;23500;53.268;8.308;2023-12-20T00:10:43;6.63;;;5.63;;
37657;SDS011;23500;53.268;8.308;2023-12-20T00:13:09;7.53;;;5.90;;
37657;SDS011;23500;53.268;8.308;2023-12-20T00:15:36;8.13;;;5.53;;
37657;SDS011;23500;53.268;8.308;2023-12-20T00:18:01;7.63;;;5.70;;
37657;SDS011;23500;53.268;8.308;2023-12-20T00:20:28;7.03;;;5.60;;
37657;SDS011;23500;53.268;8.308;2023-12-20T00:22:55;7.20;;;5.65;;
37657;SDS011;23500;53.268;8.308;2023-12-20T00:25:22;6.43;;;5.43;;
37657;SDS011;23500;53.268;8.308;2023-12-20T00:27:48;7.32;;;5.88;;
37657;SDS011;23500;53.268;8.308;2023-12-20T00:30:14;6.35;;;5.05;;
37657;SDS011;23500;53.268;8.308;2023-12-20T00:32:40;6.28;;;5.30;;
37657;SDS011;23500;53.268;8.308;2023-12-20T00:35:11;6.25;;;5.57;;
37657;SDS011;23500;53.268;8.308;2023-12-20T00:37:40;5.97;;;5.20;;
37657;SDS011;23500;53.268;8.308;2023-12-20T00:40:06;6.13;;;5.50;;
37657;SDS011;23500;53.268;8.308;2023-12-20T00:42:33;8.52;;;5.80;;
37657;SDS011;23500;53.268;8.308;2023-12-20T00:44:59;6.90;;;5.40;;
37657;SDS011;23500;53.268;8.308;2023-12-20T00:47:25;6.20;;;5.47;;
37657;SDS011;23500;53.268;8.308;2023-12-20T00:49:51;6.95;;;5.57;;
37657;SDS011;23500;53.268;8.308;2023-12-20T00:52:17;5.97;;;5.40;;
37657;SDS011;23500;53.268;8.308;2023-12-20T00:54:43;6.40;;;5.35;;
37657;SDS011;23500;53.268;8.308;2023-12-20T00:57:09;6.00;;;5.35;;
37657;SDS011;23500;53.268;8.308;2023-12-20T00:59:35;6.28;;;5.60;;
37657;SDS011;23500;53.268;8.308;2023-12-20T01:02:01;6.22;;;5.32;;
37657;SDS011;23500;53.268;8.308;2023-12-20T01:04:27;5.32;;;4.70;;
37657;SDS011;23500;53.268;8.308;2023-12-20T01:06:52;6.43;;;5.53;;
37657;SDS011;23500;53.268;8.308;2023-12-20T01:09:18;6.88;;;5.43;;
37657;SDS011;23500;53.268;8.308;2023-12-20T01:11:44;6.28;;;5.35;;
37657;SDS011;23500;53.268;8.308;2023-12-20T01:14:11;6.75;;;5.25;;
37657;SDS011;23500;53.268;8.308;2023-12-20T01:16:37;5.75;;;5.13;;
37657;SDS011;23500;53.268;8.308;2023-12-20T01:19:03;7.53;;;5.22;;
37657;SDS011;23500;53.268;8.308;2023-12-20T01:21:29;6.05;;;5.03;;
37657;SDS011;23500;53.268;8.308;2023-12-20T01:23:54;8.32;;;5.72;;
37657;SDS011;23500;53.268;8.308;2023-12-20T01:26:20;5.80;;;5.05;;
37657;SDS011;23500;53.268;8.308;2023-12-20T01:28:46;6.68;;;5.00;;
37657;SDS011;23500;53.268;8.308;2023-12-20T01:31:11;6.05;;;4.90;;
37657;SDS011;23500;53.268;8.308;2023-12-20T01:33:37;5.68;;;5.10;;
37657;SDS011;23500;53.268;8.308;2023-12-20T01:36:03;5.97;;;5.18;;
37657;SDS011;23500;53.268;8.308;2023-12-20T01:38:29;5.78;;;5.20;;
37657;SDS011;23500;53.268;8.308;2023-12-20T01:40:55;6.68;;;5.22;;
37657;SDS011;23500;53.268;8.308;2023-12-20T01:43:20;5.90;;;5.07;;
37657;SDS011;23500;53.268;8.308;2023-12-20T01:45:46;5.75;;;4.78;;
37657;SDS011;23500;53.268;8.308;2023-12-20T01:48:13;5.93;;;5.18;;
37657;SDS011;23500;53.268;8.308;2023-12-20T01:50:41;5.18;;;4.65;;
37657;SDS011;23500;53.268;8.308;2023-12-20T01:53:08;5.93;;;5.00;;
37657;SDS011;23500;53.268;8.308;2023-12-20T01:55:38;6.32;;;5.28;;
37657;SDS011;23500;53.268;8.308;2023-12-20T01:58:05;6.88;;;5.57;;
37657;SDS011;23500;53.268;8.308;2023-12-20T02:00:33;5.82;;;5.15;;
37657;SDS011;23500;53.268;8.308;2023-12-20T02:03:00;5.20;;;4.60;;
37657;SDS011;23500;53.268;8.308;2023-12-20T02:05:27;5.43;;;4.90;;
37657;SDS011;23500;53.268;8.308;2023-12-20T02:07:54;6.40;;;5.07;;
37657;SDS011;23500;53.268;8.308;2023-12-20T02:10:20;5.53;;;4.82;;
37657;SDS011;23500;53.268;8.308;2023-12-20T02:12:46;5.32;;;4.53;;
37657;SDS011;23500;53.268;8.308;2023-12-20T02:15:11;6.05;;;4.88;;
37657;SDS011;23500;53.268;8.308;2023-12-20T02:17:38;6.30;;;5.10;;
37657;SDS011;23500;53.268;8.308;2023-12-20T02:20:05;5.80;;;4.60;;
37657;SDS011;23500;53.268;8.308;2023-12-20T02:22:31;5.60;;;5.05;;
37657;SDS011;23500;53.268;8.308;2023-12-20T02:24:57;5.03;;;4.53;;
37657;SDS011;23500;53.268;8.308;2023-12-20T02:27:22;5.75;;;4.65;;
37657;SDS011;23500;53.268;8.308;2023-12-20T02:29:48;4.97;;;4.47;;
37657;SDS011;23500;53.268;8.308;2023-12-20T02:32:16;5.65;;;4.97;;
37657;SDS011;23500;53.268;8.308;2023-12-20T02:34:43;5.57;;;4.63;;
37657;SDS011;23500;53.268;8.308;2023-12-20T02:37:09;4.85;;;4.35;;
37657;SDS011;23500;53.268;8.308;2023-12-20T02:39:34;5.82;;;4.97;;
37657;SDS011;23500;53.268;8.308;2023-12-20T02:42:00;6.15;;;4.60;;
37657;SDS011;23500;53.268;8.308;2023-12-20T02:44:26;5.75;;;5.10;;
37657;SDS011;23500;53.268;8.308;2023-12-20T02:46:52;5.90;;;4.40;;
37657;SDS011;23500;53.268;8.308;2023-12-20T02:49:17;5.40;;;4.70;;
37657;SDS011;23500;53.268;8.308;2023-12-20T02:51:43;5.75;;;4.88;;
37657;SDS011;23500;53.268;8.308;2023-12-20T02:54:09;5.25;;;4.53;;
37657;SDS011;23500;53.268;8.308;2023-12-20T02:56:34;5.53;;;4.55;;
37657;SDS011;23500;53.268;8.308;2023-12-20T02:59:00;5.72;;;4.40;;
37657;SDS011;23500;53.268;8.308;2023-12-20T03:01:27;5.25;;;4.40;;
37657;SDS011;23500;53.268;8.308;2023-12-20T03:03:53;5.72;;;4.65;;
37657;SDS011;23500;53.268;8.308;2023-12-20T03:06:19;5.95;;;4.75;;
37657;SDS011;23500;53.268;8.308;2023-12-20T03:08:45;6.35;;;4.65;;
37657;SDS011;23500;53.268;8.308;2023-12-20T03:11:10;5.80;;;4.95;;
37657;SDS011;23500;53.268;8.308;2023-12-20T03:13:36;5.22;;;4.68;;
37657;SDS011;23500;53.268;8.308;2023-12-20T03:16:07;4.95;;;4.45;;
37657;SDS011;23500;53.268;8.308;2023-12-20T03:18:37;5.32;;;4.80;;
37657;SDS011;23500;53.268;8.308;2023-12-20T03:21:03;5.07;;;4.57;;
37657;SDS011;23500;53.268;8.308;2023-12-20T03:23:30;5.15;;;4.50;;
37657;SDS011;23500;53.268;8.308;2023-12-20T03:25:57;4.72;;;4.30;;
37657;SDS011;23500;53.268;8.308;2023-12-20T03:28:23;5.68;;;4.63;;
37657;SDS011;23500;53.268;8.308;2023-12-20T03:30:50;5.22;;;4.70;;
37657;SDS011;23500;53.268;8.308;2023-12-20T03:33:15;4.97;;;4.30;;
37657;SDS011;23500;53.268;8.308;2023-12-20T03:35:41;6.20;;;5.00;;
37657;SDS011;23500;53.268;8.308;2023-12-20T03:38:07;5.07;;;4.15;;
37657;SDS011;23500;53.268;8.308;2023-12-20T03:40:33;5.63;;;4.53;;
37657;SDS011;23500;53.268;8.308;2023-12-20T03:42:58;4.43;;;4.03;;
37657;SDS011;23500;53.268;8.308;2023-12-20T03:45:24;4.90;;;4.25;;
37657;SDS011;23500;53.268;8.308;2023-12-20T03:47:50;4.50;;;4.00;;
37657;SDS011;23500;53.268;8.308;2023-12-20T03:50:20;5.15;;;4.03;;
37657;SDS011;23500;53.268;8.308;2023-12-20T03:52:47;5.78;;;4.43;;
37657;SDS011;23500;53.268;8.308;2023-12-20T03:55:13;4.45;;;4.05;;
37657;SDS011;23500;53.268;8.308;2023-12-20T03:57:38;4.68;;;4.13;;
37657;SDS011;23500;53.268;8.308;2023-12-20T04:00:05;5.78;;;4.30;;
37657;SDS011;23500;53.268;8.308;2023-12-20T04:02:35;4.53;;;4.10;;
37657;SDS011;23500;53.268;8.308;2023-12-20T04:05:01;5.10;;;4.05;;
37657;SDS011;23500;53.268;8.308;2023-12-20T04:07:27;4.40;;;4.00;;
37657;SDS011;23500;53.268;8.308;2023-12-20T04:09:53;4.50;;;4.10;;
37657;SDS011;23500;53.268;8.308;2023-12-20T04:12:18;4.75;;;4.05;;
37657;SDS011;23500;53.268;8.308;2023-12-20T04:14:44;4.88;;;4.43;;
37657;SDS011;23500;53.268;8.308;2023-12-20T04:17:10;3.92;;;3.53;;
37657;SDS011;23500;53.268;8.308;2023-12-20T04:19:35;4.85;;;4.20;;
37657;SDS011;23500;53.268;8.308;2023-12-20T04:22:01;5.07;;;4.18;;
37657;SDS011;23500;53.268;8.308;2023-12-20T04:24:27;4.50;;;4.05;;
37657;SDS011;23500;53.268;8.308;2023-12-20T04:26:52;4.03;;;3.63;;
37657;SDS011;23500;53.268;8.308;2023-12-20T04:29:18;4.75;;;4.22;;
37657;SDS011;23500;53.268;8.308;2023-12-20T04:31:44;4.70;;;4.15;;
37657;SDS011;23500;53.268;8.308;2023-12-20T04:34:09;4.20;;;3.80;;
37657;SDS011;23500;53.268;8.308;2023-12-20T04:36:35;3.70;;;3.40;;
37657;SDS011;23500;53.268;8.308;2023-12-20T04:39:01;4.47;;;3.63;;
37657;SDS011;23500;53.268;8.308;2023-12-20T04:41:26;4.28;;;3.85;;
37657;SDS011;23500;53.268;8.308;2023-12-20T04:43:52;4.22;;;3.83;;
37657;SDS011;23500;53.268;8.308;2023-12-20T04:46:18;4.22;;;3.60;;
37657;SDS011;23500;53.268;8.308;2023-12-20T04:48:44;3.90;;;3.50;;
37657;SDS011;23500;53.268;8.308;2023-12-20T04:51:09;4.40;;;3.47;;
37657;SDS011;23500;53.268;8.308;2023-12-20T04:53:35;3.95;;;3.47;;
37657;SDS011;23500;53.268;8.308;2023-12-20T04:56:01;4.47;;;3.95;;
37657;SDS011;23500;53.268;8.308;2023-12-20T04:58:26;4.00;;;3.55;;
37657;SDS011;23500;53.268;8.308;2023-12-20T05:00:52;4.20;;;3.80;;
37657;SDS011;23500;53.268;8.308;2023-12-20T05:03:18;3.95;;;3.53;;
37657;SDS011;23500;53.268;8.308;2023-12-20T05:05:43;4.10;;;3.70;;
37657;SDS011;23500;53.268;8.308;2023-12-20T05:08:09;3.78;;;3.38;;
37657;SDS011;23500;53.268;8.308;2023-12-20T05:10:35;3.67;;;3.30;;
37657;SDS011;23500;53.268;8.308;2023-12-20T05:13:01;4.63;;;3.78;;
37657;SDS011;23500;53.268;8.308;2023-12-20T05:15:27;3.92;;;3.45;;
37657;SDS011;23500;53.268;8.308;2023-12-20T05:17:53;3.40;;;3.08;;
37657;SDS011;23500;53.268;8.308;2023-12-20T05:20:18;3.45;;;3.15;;
37657;SDS011;23500;53.268;8.308;2023-12-20T05:22:44;4.07;;;3.67;;
37657;SDS011;23500;53.268;8.308;2023-12-20T05:25:10;3.67;;;3.35;;
37657;SDS011;23500;53.268;8.308;2023-12-20T05:27:36;3.78;;;3.05;;
37657;SDS011;23500;53.268;8.308;2023-12-20T05:30:02;4.00;;;3.50;;
37657;SDS011;23500;53.268;8.308;2023-12-20T05:32:29;3.25;;;2.95;;
37657;SDS011;23500;53.268;8.308;2023-12-20T05:34:55;2.90;;;2.70;;
37657;SDS011;23500;53.268;8.308;2023-12-20T05:37:20;3.00;;;2.70;;
37657;SDS011;23500;53.268;8.308;2023-12-20T05:39:46;3.55;;;3.25;;
37657;SDS011;23500;53.268;8.308;2023-12-20T05:42:12;4.38;;;3.50;;
37657;SDS011;23500;53.268;8.308;2023-12-20T05:44:37;3.47;;;3.00;;
37657;SDS011;23500;53.268;8.308;2023-12-20T05:47:03;3.10;;;2.75;;
37657;SDS011;23500;53.268;8.308;2023-12-20T05:49:29;3.47;;;3.10;;
37657;SDS011;23500;53.268;8.308;2023-12-20T05:51:54;3.92;;;3.00;;
37657;SDS011;23500;53.268;8.308;2023-12-20T05:54:20;3.47;;;3.17;;
37657;SDS011;23500;53.268;8.308;2023-12-20T05:56:46;3.10;;;2.80;;
37657;SDS011;23500;53.268;8.308;2023-12-20T05:59:12;3.40;;;2.85;;
37657;SDS011;23500;53.268;8.308;2023-12-20T06:01:38;3.08;;;2.78;;
37657;SDS011;23500;53.268;8.308;2023-12-20T06:04:04;3.35;;;2.88;;
37657;SDS011;23500;53.268;8.308;2023-12-20T06:06:30;2.78;;;2.58;;
37657;SDS011;23500;53.268;8.308;2023-12-20T06:08:56;3.15;;;2.78;;
37657;SDS011;23500;53.268;8.308;2023-12-20T06:11:22;4.10;;;3.10;;
37657;SDS011;23500;53.268;8.308;2023-12-20T06:13:48;2.88;;;2.65;;
37657;SDS011;23500;53.268;8.308;2023-12-20T06:16:16;3.10;;;2.65;;
37657;SDS011;23500;53.268;8.308;2023-12-20T06:18:42;3.08;;;2.70;;
37657;SDS011;23500;53.268;8.308;2023-12-20T06:21:08;2.60;;;2.40;;
37657;SDS011;23500;53.268;8.308;2023-12-20T06:23:37;3.67;;;2.70;;
37657;SDS011;23500;53.268;8.308;2023-12-20T06:26:03;3.13;;;2.70;;
37657;SDS011;23500;53.268;8.308;2023-12-20T06:28:29;3.30;;;2.75;;
37657;SDS011;23500;53.268;8.308;2023-12-20T06:30:55;3.00;;;2.65;;
37657;SDS011;23500;53.268;8.308;2023-12-20T06:33:22;2.55;;;2.33;;
37657;SDS011;23500;53.268;8.308;2023-12-20T06:35:48;3.92;;;2.58;;
37657;SDS011;23500;53.268;8.308;2023-12-20T06:38:14;3.17;;;2.78;;
37657;SDS011;23500;53.268;8.308;2023-12-20T06:40:39;2.88;;;2.58;;
37657;SDS011;23500;53.268;8.308;2023-12-20T06:43:05;10.88;;;4.20;;
37657;SDS011;23500;53.268;8.308;2023-12-20T06:45:32;10.43;;;4.32;;
37657;SDS011;23500;53.268;8.308;2023-12-20T06:47:57;15.88;;;5.18;;
37657;SDS011;23500;53.268;8.308;2023-12-20T06:50:23;19.83;;;6.07;;
37657;SDS011;23500;53.268;8.308;2023-12-20T06:52:49;22.70;;;6.00;;
37657;SDS011;23500;53.268;8.308;2023-12-20T06:55:15;22.85;;;6.13;;
37657;SDS011;23500;53.268;8.308;2023-12-20T06:57:42;27.35;;;6.63;;
37657;SDS011;23500;53.268;8.308;2023-12-20T07:00:08;23.50;;;6.18;;
37657;SDS011;23500;53.268;8.308;2023-12-20T07:02:35;19.63;;;5.97;;
37657;SDS011;23500;53.268;8.308;2023-12-20T07:05:01;23.75;;;6.82;;
37657;SDS011;23500;53.268;8.308;2023-12-20T07:07:27;22.63;;;6.05;;
37657;SDS011;23500;53.268;8.308;2023-12-20T07:09:53;28.63;;;6.78;;
37657;SDS011;23500;53.268;8.308;2023-12-20T07:12:18;18.52;;;5.97;;
37657;SDS011;23500;53.268;8.308;2023-12-20T07:14:45;21.20;;;6.75;;
37657;SDS011;23500;53.268;8.308;2023-12-20T07:17:11;20.08;;;5.93;;
37657;SDS011;23500;53.268;8.308;2023-12-20T07:19:38;18.27;;;5.72;;
37657;SDS011;23500;53.268;8.308;2023-12-20T07:22:05;21.25;;;6.30;;
37657;SDS011;23500;53.268;8.308;2023-12-20T07:24:31;22.75;;;6.18;;
37657;SDS011;23500;53.268;8.308;2023-12-20T07:26:57;19.00;;;6.32;;
37657;SDS011;23500;53.268;8.308;2023-12-20T07:29:24;20.50;;;6.10;;
37657;SDS011;23500;53.268;8.308;2023-12-20T07:31:50;17.27;;;6.25;;
37657;SDS011;23500;53.268;8.308;2023-12-20T07:34:17;17.75;;;5.80;;
37657;SDS011;23500;53.268;8.308;2023-12-20T07:36:42;16.77;;;5.57;;
37657;SDS011;23500;53.268;8.308;2023-12-20T07:39:08;18.17;;;5.82;;
37657;SDS011;23500;53.268;8.308;2023-12-20T07:41:34;19.52;;;5.30;;
37657;SDS011;23500;53.268;8.308;2023-12-20T07:43:59;17.70;;;5.45;;
37657;SDS011;23500;53.268;8.308;2023-12-20T07:46:25;17.02;;;5.40;;
37657;SDS011;23500;53.268;8.308;2023-12-20T07:48:51;15.45;;;4.95;;
37657;SDS011;23500;53.268;8.308;2023-12-20T07:51:16;18.70;;;6.13;;
37657;SDS011;23500;53.268;8.308;2023-12-20T07:53:42;18.27;;;4.97;;
37657;SDS011;23500;53.268;8.308;2023-12-20T07:56:14;17.23;;;4.90;;
37657;SDS011;23500;53.268;8.308;2023-12-20T07:58:40;19.58;;;5.38;;
37657;SDS011;23500;53.268;8.308;2023-12-20T08:01:06;18.27;;;5.63;;
37657;SDS011;23500;53.268;8.308;2023-12-20T08:03:31;16.67;;;5.13;;
37657;SDS011;23500;53.268;8.308;2023-12-20T08:05:57;20.10;;;5.57;;
37657;SDS011;23500;53.268;8.308;2023-12-20T08:08:24;12.60;;;4.97;;
37657;SDS011;23500;53.268;8.308;2023-12-20T08:10:50;15.13;;;5.20;;
37657;SDS011;23500;53.268;8.308;2023-12-20T08:13:15;15.23;;;4.75;;
37657;SDS011;23500;53.268;8.308;2023-12-20T08:15:41;13.18;;;5.15;;
37657;SDS011;23500;53.268;8.308;2023-12-20T08:18:07;13.52;;;4.53;;
37657;SDS011;23500;53.268;8.308;2023-12-20T08:20:33;13.98;;;4.70;;
37657;SDS011;23500;53.268;8.308;2023-12-20T08:22:58;16.58;;;5.18;;
37657;SDS011;23500;53.268;8.308;2023-12-20T08:25:24;11.75;;;4.68;;
37657;SDS011;23500;53.268;8.308;2023-12-20T08:27:49;12.90;;;4.85;;
37657;SDS011;23500;53.268;8.308;2023-12-20T08:30:15;13.32;;;4.90;;
37657;SDS011;23500;53.268;8.308;2023-12-20T08:32:45;12.65;;;4.90;;
37657;SDS011;23500;53.268;8.308;2023-12-20T08:35:11;15.02;;;4.70;;
37657;SDS011;23500;53.268;8.308;2023-12-20T08:37:37;13.35;;;4.40;;
37657;SDS011;23500;53.268;8.308;2023-12-20T08:40:02;9.63;;;4.00;;
37657;SDS011;23500;53.268;8.308;2023-12-20T08:42:28;9.98;;;3.90;;
37657;SDS011;23500;53.268;8.308;2023-12-20T08:44:56;13.13;;;4.13;;
37657;SDS011;23500;53.268;8.308;2023-12-20T08:47:23;11.48;;;4.50;;
37657;SDS011;23500;53.268;8.308;2023-12-20T08:49:49;11.60;;;3.88;;
37657;SDS011;23500;53.268;8.308;2023-12-20T08:52:15;12.10;;;4.50;;
37657;SDS011;23500;53.268;8.308;2023-12-20T08:54:41;11.52;;;3.97;;
37657;SDS011;23500;53.268;8.308;2023-12-20T08:57:06;10.55;;;4.10;;
37657;SDS011;23500;53.268;8.308;2023-12-20T08:59:32;11.18;;;4.50;;
37657;SDS011;23500;53.268;8.308;2023-12-20T09:01:58;12.30;;;4.15;;
37657;SDS011;23500;53.268;8.308;2023-12-20T09:04:24;10.48;;;4.03;;
37657;SDS011;23500;53.268;8.308;2023-12-20T09:06:50;9.88;;;3.72;;
37657;SDS011;23500;53.268;8.308;2023-12-20T09:09:16;14.30;;;4.45;;
37657;SDS011;23500;53.268;8.308;2023-12-20T09:11:41;8.60;;;3.58;;
37657;SDS011;23500;53.268;8.308;2023-12-20T09:14:07;9.88;;;3.50;;
37657;SDS011;23500;53.268;8.308;2023-12-20T09:16:33;9.90;;;3.80;;
37657;SDS011;23500;53.268;8.308;2023-12-20T09:18:59;13.65;;;3.92;;
37657;SDS011;23500;53.268;8.308;2023-12-20T09:21:24;11.13;;;4.03;;
37657;SDS011;23500;53.268;8.308;2023-12-20T09:23:50;11.98;;;3.83;;
37657;SDS011;23500;53.268;8.308;2023-12-20T09:26:16;10.60;;;3.55;;
37657;SDS011;23500;53.268;8.308;2023-12-20T09:28:42;10.32;;;3.70;;
37657;SDS011;23500;53.268;8.308;2023-12-20T09:31:07;9.90;;;3.92;;
37657;SDS011;23500;53.268;8.308;2023-12-20T09:33:33;9.88;;;3.88;;
37657;SDS011;23500;53.268;8.308;2023-12-20T09:35:59;10.82;;;3.75;;
37657;SDS011;23500;53.268;8.308;2023-12-20T09:38:25;9.50;;;3.97;;
37657;SDS011;23500;53.268;8.308;2023-12-20T09:40:50;7.28;;;3.38;;
37657;SDS011;23500;53.268;8.308;2023-12-20T09:43:18;8.65;;;3.42;;
37657;SDS011;23500;53.268;8.308;2023-12-20T09:45:46;10.25;;;3.60;;
37657;SDS011;23500;53.268;8.308;2023-12-20T09:48:13;9.02;;;3.72;;
37657;SDS011;23500;53.268;8.308;2023-12-20T09:50:42;9.75;;;4.22;;
37657;SDS011;23500;53.268;8.308;2023-12-20T09:53:09;9.52;;;3.65;;
37657;SDS011;23500;53.268;8.308;2023-12-20T09:55:37;10.15;;;3.47;;
37657;SDS011;23500;53.268;8.308;2023-12-20T09:58:04;8.60;;;3.55;;
37657;SDS011;23500;53.268;8.308;2023-12-20T10:00:31;7.53;;;3.20;;
37657;SDS011;23500;53.268;8.308;2023-12-20T10:02:58;7.85;;;3.35;;
37657;SDS011;23500;53.268;8.308;2023-12-20T10:05:28;8.00;;;3.30;;
37657;SDS011;23500;53.268;8.308;2023-12-20T10:07:55;6.63;;;2.80;;
37657;SDS011;23500;53.268;8.308;2023-12-20T10:10:21;8.48;;;3.42;;
37657;SDS011;23500;53.268;8.308;2023-12-20T10:15:35;5.75;;;2.72;;
37657;SDS011;23500;53.268;8.308;2023-12-20T10:18:03;7.55;;;3.08;;
37657;SDS011;23500;53.268;8.308;2023-12-20T10:20:30;6.90;;;3.00;;
37657;SDS011;23500;53.268;8.308;2023-12-20T10:22:59;6.22;;;2.78;;
37657;SDS011;23500;53.268;8.308;2023-12-20T10:25:26;6.80;;;3.05;;
37657;SDS011;23500;53.268;8.308;2023-12-20T10:30:36;5.70;;;3.08;;
37657;SDS011;23500;53.268;8.308;2023-12-20T10:33:02;6.85;;;2.85;;
37657;SDS011;23500;53.268;8.308;2023-12-20T10:35:27;6.78;;;3.42;;
37657;SDS011;23500;53.268;8.308;2023-12-20T10:37:55;6.28;;;3.13;;
37657;SDS011;23500;53.268;8.308;2023-12-20T10:40:23;6.97;;;2.70;;
37657;SDS011;23500;53.268;8.308;2023-12-20T10:42:51;6.78;;;2.80;;
37657;SDS011;23500;53.268;8.308;2023-12-20T10:45:17;5.85;;;2.80;;
37657;SDS011;23500;53.268;8.308;2023-12-20T10:47:44;7.15;;;2.85;;
37657;SDS011;23500;53.268;8.308;2023-12-20T10:50:11;6.78;;;2.83;;
37657;SDS011;23500;53.268;8.308;2023-12-20T10:52:37;4.93;;;2.30;;
37657;SDS011;23500;53.268;8.308;2023-12-20T10:55:05;5.65;;;2.40;;
37657;SDS011;23500;53.268;8.308;2023-12-20T10:57:31;5.35;;;2.70;;
37657;SDS011;23500;53.268;8.308;2023-12-20T11:00:00;7.20;;;2.58;;
37657;SDS011;23500;53.268;8.308;2023-12-20T11:02:30;7.43;;;2.70;;
37657;SDS011;23500;53.268;8.308;2023-12-20T11:10:54;4.85;;;2.63;;
37657;SDS011;23500;53.268;8.308;2023-12-20T11:13:48;6.13;;;2.50;;
37657;SDS011;23500;53.268;8.308;2023-12-20T11:16:18;6.15;;;2.08;;
37657;SDS011;23500;53.268;8.308;2023-12-20T11:18:44;4.68;;;2.40;;
37657;SDS011;23500;53.268;8.308;2023-12-20T11:21:10;5.13;;;2.45;;
37657;SDS011;23500;53.268;8.308;2023-12-20T11:23:36;5.82;;;2.10;;
37657;SDS011;23500;53.268;8.308;2023-12-20T11:26:02;4.43;;;2.30;;
37657;SDS011;23500;53.268;8.308;2023-12-20T11:28:28;4.57;;;2.28;;
37657;SDS011;23500;53.268;8.308;2023-12-20T11:30:58;4.05;;;1.95;;
37657;SDS011;23500;53.268;8.308;2023-12-20T11:33:26;6.60;;;2.05;;
37657;SDS011;23500;53.268;8.308;2023-12-20T11:35:55;4.20;;;2.22;;
37657;SDS011;23500;53.268;8.308;2023-12-20T11:38:22;5.68;;;2.47;;
37657;SDS011;23500;53.268;8.308;2023-12-20T11:40:49;5.78;;;2.15;;
37657;SDS011;23500;53.268;8.308;2023-12-20T11:43:31;4.43;;;2.30;;
37657;SDS011;23500;53.268;8.308;2023-12-20T11:46:08;4.68;;;2.38;;
37657;SDS011;23500;53.268;8.308;2023-12-20T11:48:35;3.80;;;1.83;;
37657;SDS011;23500;53.268;8.308;2023-12-20T11:51:02;4.82;;;2.30;;
37657;SDS011;23500;53.268;8.308;2023-12-20T11:53:29;5.38;;;1.95;;
37657;SDS011;23500;53.268;8.308;2023-12-20T11:55:57;4.93;;;2.13;;
37657;SDS011;23500;53.268;8.308;2023-12-20T11:58:22;4.18;;;2.00;;
37657;SDS011;23500;53.268;8.308;2023-12-20T12:00:49;4.55;;;2.10;;
37657;SDS011;23500;53.268;8.308;2023-12-20T12:03:16;3.35;;;2.17;;
37657;SDS011;23500;53.268;8.308;2023-12-20T12:05:41;5.28;;;2.08;;
37657;SDS011;23500;53.268;8.308;2023-12-20T12:08:07;4.07;;;2.05;;
37657;SDS011;23500;53.268;8.308;2023-12-20T12:10:33;3.95;;;1.77;;
37657;SDS011;23500;53.268;8.308;2023-12-20T12:12:59;4.65;;;2.00;;
37657;SDS011;23500;53.268;8.308;2023-12-20T12:15:25;5.75;;;1.90;;
37657;SDS011;23500;53.268;8.308;2023-12-20T12:17:54;3.95;;;1.77;;
37657;SDS011;23500;53.268;8.308;2023-12-20T12:20:21;2.97;;;1.73;;
37657;SDS011;23500;53.268;8.308;2023-12-20T12:23:00;4.28;;;2.20;;
37657;SDS011;23500;53.268;8.308;2023-12-20T12:25:30;4.32;;;2.20;;
37657;SDS011;23500;53.268;8.308;2023-12-20T12:27:59;2.50;;;1.40;;
37657;SDS011;23500;53.268;8.308;2023-12-20T12:30:25;2.65;;;1.70;;
37657;SDS011;23500;53.268;8.308;2023-12-20T12:32:52;4.60;;;2.15;;
37657;SDS011;23500;53.268;8.308;2023-12-20T12:35:18;4.07;;;1.88;;
37657;SDS011;23500;53.268;8.308;2023-12-20T12:37:44;4.30;;;2.13;;
37657;SDS011;23500;53.268;8.308;2023-12-20T12:40:11;4.18;;;2.03;;
37657;SDS011;23500;53.268;8.308;2023-12-20T12:42:38;4.22;;;1.85;;
37657;SDS011;23500;53.268;8.308;2023-12-20T12:45:05;4.18;;;1.80;;
37657;SDS011;23500;53.268;8.308;2023-12-20T12:47:31;3.67;;;1.83;;
37657;SDS011;23500;53.268;8.308;2023-12-20T12:49:57;5.13;;;2.10;;
37657;SDS011;23500;53.268;8.308;2023-12-20T12:52:23;3.75;;;1.70;;
37657;SDS011;23500;53.268;8.308;2023-12-20T12:54:49;4.63;;;1.90;;
37657;SDS011;23500;53.268;8.308;2023-12-20T12:57:15;5.03;;;2.00;;
37657;SDS011;23500;53.268;8.308;2023-12-20T12:59:44;4.72;;;2.00;;
37657;SDS011;23500;53.268;8.308;2023-12-20T13:02:13;4.00;;;1.90;;
37657;SDS011;23500;53.268;8.308;2023-12-20T13:04:39;3.20;;;1.70;;
37657;SDS011;23500;53.268;8.308;2023-12-20T13:07:06;4.28;;;2.05;;
37657;SDS011;23500;53.268;8.308;2023-12-20T13:09:38;3.45;;;1.60;;
37657;SDS011;23500;53.268;8.308;2023-12-20T13:12:05;2.67;;;1.50;;
37657;SDS011;23500;53.268;8.308;2023-12-20T13:14:32;3.40;;;1.52;;
37657;SDS011;23500;53.268;8.308;2023-12-20T13:16:59;2.97;;;1.60;;
37657;SDS011;23500;53.268;8.308;2023-12-20T13:19:25;3.88;;;1.70;;
37657;SDS011;23500;53.268;8.308;2023-12-20T13:21:51;4.50;;;1.80;;
37657;SDS011;23500;53.268;8.308;2023-12-20T13:24:17;3.47;;;1.60;;
37657;SDS011;23500;53.268;8.308;2023-12-20T13:26:43;2.75;;;1.80;;
37657;SDS011;23500;53.268;8.308;2023-12-20T13:29:09;3.10;;;1.75;;
37657;SDS011;23500;53.268;8.308;2023-12-20T13:31:35;3.10;;;1.42;;
37657;SDS011;23500;53.268;8.308;2023-12-20T13:34:08;3.55;;;1.50;;
37657;SDS011;23500;53.268;8.308;2023-12-20T13:36:34;2.33;;;1.45;;
37657;SDS011;23500;53.268;8.308;2023-12-20T13:39:01;3.80;;;1.83;;
37657;SDS011;23500;53.268;8.308;2023-12-20T13:41:28;3.28;;;1.70;;
37657;SDS011;23500;53.268;8.308;2023-12-20T13:43:54;2.67;;;1.50;;
37657;SDS011;23500;53.268;8.308;2023-12-20T13:46:19;5.63;;;1.75;;
37657;SDS011;23500;53.268;8.308;2023-12-20T13:48:45;3.03;;;1.40;;
37657;SDS011;23500;53.268;8.308;2023-12-20T13:51:10;2.42;;;1.33;;
37657;SDS011;23500;53.268;8.308;2023-12-20T13:53:36;2.75;;;1.42;;
37657;SDS011;23500;53.268;8.308;2023-12-20T13:56:03;4.10;;;1.50;;
37657;SDS011;23500;53.268;8.308;2023-12-20T13:58:29;3.30;;;1.63;;
37657;SDS011;23500;53.268;8.308;2023-12-20T14:00:55;3.00;;;1.17;;
37657;SDS011;23500;53.268;8.308;2023-12-20T14:03:21;2.60;;;1.33;;
37657;SDS011;23500;53.268;8.308;2023-12-20T14:05:47;1.92;;;1.27;;
37657;SDS011;23500;53.268;8.308;2023-12-20T14:08:12;2.03;;;1.25;;
37657;SDS011;23500;53.268;8.308;2023-12-20T14:10:38;2.50;;;1.33;;
37657;SDS011;23500;53.268;8.308;2023-12-20T14:13:04;3.08;;;1.63;;
37657;SDS011;23500;53.268;8.308;2023-12-20T14:15:30;3.42;;;1.55;;
37657;SDS011;23500;53.268;8.308;2023-12-20T14:18:02;3.13;;;1.27;;
37657;SDS011;23500;53.268;8.308;2023-12-20T14:20:34;3.10;;;1.30;;
37657;SDS011;23500;53.268;8.308;2023-12-20T14:23:00;4.82;;;1.60;;
37657;SDS011;23500;53.268;8.308;2023-12-20T14:25:26;1.83;;;1.17;;
37657;SDS011;23500;53.268;8.308;2023-12-20T14:27:52;4.03;;;1.40;;
37657;SDS011;23500;53.268;8.308;2023-12-20T14:30:18;2.83;;;1.50;;
37657;SDS011;23500;53.268;8.308;2023-12-20T14:32:43;2.60;;;1.40;;
37657;SDS011;23500;53.268;8.308;2023-12-20T14:35:09;2.75;;;1.27;;
37657;SDS011;23500;53.268;8.308;2023-12-20T14:37:35;2.10;;;1.30;;
37657;SDS011;23500;53.268;8.308;2023-12-20T14:40:05;3.50;;;1.45;;
37657;SDS011;23500;53.268;8.308;2023-12-20T14:42:39;2.75;;;1.60;;
37657;SDS011;23500;53.268;8.308;2023-12-20T14:45:04;3.47;;;1.30;;
37657;SDS011;23500;53.268;8.308;2023-12-20T14:47:30;2.15;;;1.20;;
37657;SDS011;23500;53.268;8.308;2023-12-20T14:49:56;2.75;;;1.48;;
37657;SDS011;23500;53.268;8.308;2023-12-20T14:52:22;3.13;;;1.40;;